sensor_id;sensor_type;location;lat;lon;timestamp;P1;durP1;ratioP1;P2;durP2;ratioP2
41921;SDS011;27609;51.002;5.354;2022-12-24T00:00:21;33.70;;;5.10;;
41921;SDS011;27609;51.002;5.354;2022-12-24T00:02:48;43.70;;;8.13;;
41921;SDS011;27609;51.002;5.354;2022-12-24T00:05:14;41.13;;;6.10;;
41921;SDS011;27609;51.002;5.354;2022-12-24T00:07:40;48.92;;;6.03;;
41921;SDS011;27609;51.002;5.354;2022-12-24T00:10:06;43.38;;;7.07;;
41921;SDS011;27609;51.002;5.354;2022-12-24T00:12:32;44.58;;;6.30;;
41921;SDS011;27609;51.002;5.354;2022-12-24T00:14:58;43.90;;;7.70;;
41921;SDS011;27609;51.002;5.354;2022-12-24T00:17:23;38.83;;;6.30;;
41921;SDS011;27609;51.002;5.354;2022-12-24T00:19:49;42.50;;;6.65;;
41921;SDS011;27609;51.002;5.354;2022-12-24T00:22:15;30.52;;;5.63;;
41921;SDS011;27609;51.002;5.354;2022-12-24T00:24:40;36.20;;;6.72;;
41921;SDS011;27609;51.002;5.354;2022-12-24T00:27:06;40.58;;;5.68;;
41921;SDS011;27609;51.002;5.354;2022-12-24T00:29:32;46.75;;;6.50;;
41921;SDS011;27609;51.002;5.354;2022-12-24T00:31:57;38.88;;;6.97;;
41921;SDS011;27609;51.002;5.354;2022-12-24T00:34:23;29.45;;;5.32;;
41921;SDS011;27609;51.002;5.354;2022-12-24T00:36:49;37.88;;;5.78;;
41921;SDS011;27609;51.002;5.354;2022-12-24T00:39:15;31.67;;;5.35;;
41921;SDS011;27609;51.002;5.354;2022-12-24T00:41:41;27.33;;;5.55;;
41921;SDS011;27609;51.002;5.354;2022-12-24T00:44:07;33.55;;;6.15;;
41921;SDS011;27609;51.002;5.354;2022-12-24T00:46:38;32.67;;;4.07;;
41921;SDS011;27609;51.002;5.354;2022-12-24T00:49:05;35.97;;;6.28;;
41921;SDS011;27609;51.002;5.354;2022-12-24T00:51:32;31.77;;;5.07;;
41921;SDS011;27609;51.002;5.354;2022-12-24T00:53:59;32.28;;;4.22;;
41921;SDS011;27609;51.002;5.354;2022-12-24T00:56:25;28.50;;;4.88;;
41921;SDS011;27609;51.002;5.354;2022-12-24T00:58:51;33.63;;;4.88;;
41921;SDS011;27609;51.002;5.354;2022-12-24T01:01:17;50.20;;;6.13;;
41921;SDS011;27609;51.002;5.354;2022-12-24T01:03:42;46.63;;;7.00;;
41921;SDS011;27609;51.002;5.354;2022-12-24T01:06:09;36.20;;;5.13;;
41921;SDS011;27609;51.002;5.354;2022-12-24T01:08:39;42.03;;;6.88;;
41921;SDS011;27609;51.002;5.354;2022-12-24T01:11:06;30.23;;;5.47;;
41921;SDS011;27609;51.002;5.354;2022-12-24T01:13:32;28.23;;;3.97;;
41921;SDS011;27609;51.002;5.354;2022-12-24T01:15:58;26.52;;;4.45;;
41921;SDS011;27609;51.002;5.354;2022-12-24T01:18:24;27.73;;;4.75;;
41921;SDS011;27609;51.002;5.354;2022-12-24T01:20:57;35.33;;;5.93;;
41921;SDS011;27609;51.002;5.354;2022-12-24T01:23:24;39.53;;;5.50;;
41921;SDS011;27609;51.002;5.354;2022-12-24T01:25:50;35.15;;;6.03;;
41921;SDS011;27609;51.002;5.354;2022-12-24T01:28:16;29.20;;;5.10;;
41921;SDS011;27609;51.002;5.354;2022-12-24T01:30:42;41.72;;;5.93;;
41921;SDS011;27609;51.002;5.354;2022-12-24T01:33:08;27.60;;;5.75;;
41921;SDS011;27609;51.002;5.354;2022-12-24T01:35:34;33.75;;;5.35;;
41921;SDS011;27609;51.002;5.354;2022-12-24T01:38:03;45.28;;;5.97;;
41921;SDS011;27609;51.002;5.354;2022-12-24T01:40:28;29.15;;;5.53;;
41921;SDS011;27609;51.002;5.354;2022-12-24T01:43:16;22.35;;;4.53;;
41921;SDS011;27609;51.002;5.354;2022-12-24T01:48:22;31.52;;;5.00;;
41921;SDS011;27609;51.002;5.354;2022-12-24T01:50:49;26.42;;;4.68;;
41921;SDS011;27609;51.002;5.354;2022-12-24T01:53:23;30.88;;;4.55;;
41921;SDS011;27609;51.002;5.354;2022-12-24T01:55:48;24.23;;;4.30;;
41921;SDS011;27609;51.002;5.354;2022-12-24T01:58:15;30.45;;;5.30;;
41921;SDS011;27609;51.002;5.354;2022-12-24T02:00:42;28.15;;;4.90;;
41921;SDS011;27609;51.002;5.354;2022-12-24T02:03:08;38.90;;;5.20;;
41921;SDS011;27609;51.002;5.354;2022-12-24T02:05:47;37.85;;;5.30;;
41921;SDS011;27609;51.002;5.354;2022-12-24T02:08:17;42.22;;;6.05;;
41921;SDS011;27609;51.002;5.354;2022-12-24T02:10:43;41.85;;;5.95;;
41921;SDS011;27609;51.002;5.354;2022-12-24T02:13:10;39.83;;;6.07;;
41921;SDS011;27609;51.002;5.354;2022-12-24T02:23:44;35.20;;;5.05;;
41921;SDS011;27609;51.002;5.354;2022-12-24T02:31:28;29.05;;;5.00;;
41921;SDS011;27609;51.002;5.354;2022-12-24T02:34:36;33.75;;;5.60;;
41921;SDS011;27609;51.002;5.354;2022-12-24T02:40:02;27.35;;;3.95;;
41921;SDS011;27609;51.002;5.354;2022-12-24T02:42:37;22.05;;;3.13;;
41921;SDS011;27609;51.002;5.354;2022-12-24T02:47:37;26.50;;;3.60;;
41921;SDS011;27609;51.002;5.354;2022-12-24T02:50:05;27.17;;;3.65;;
41921;SDS011;27609;51.002;5.354;2022-12-24T02:52:34;21.92;;;2.70;;
41921;SDS011;27609;51.002;5.354;2022-12-24T02:55:09;23.50;;;3.33;;
41921;SDS011;27609;51.002;5.354;2022-12-24T02:58:27;28.17;;;4.32;;
41921;SDS011;27609;51.002;5.354;2022-12-24T03:00:40;24.10;;;3.47;;
41921;SDS011;27609;51.002;5.354;2022-12-24T03:08:20;19.70;;;3.15;;
41921;SDS011;27609;51.002;5.354;2022-12-24T03:11:01;25.40;;;3.72;;
41921;SDS011;27609;51.002;5.354;2022-12-24T03:13:34;21.58;;;3.85;;
41921;SDS011;27609;51.002;5.354;2022-12-24T03:16:02;19.23;;;4.05;;
41921;SDS011;27609;51.002;5.354;2022-12-24T03:18:31;22.92;;;4.57;;
41921;SDS011;27609;51.002;5.354;2022-12-24T03:21:08;29.63;;;4.22;;
41921;SDS011;27609;51.002;5.354;2022-12-24T03:23:42;13.15;;;2.80;;
41921;SDS011;27609;51.002;5.354;2022-12-24T03:26:08;27.77;;;8.02;;
41921;SDS011;27609;51.002;5.354;2022-12-24T03:28:38;28.70;;;7.05;;
41921;SDS011;27609;51.002;5.354;2022-12-24T03:31:05;23.42;;;4.55;;
41921;SDS011;27609;51.002;5.354;2022-12-24T03:33:32;21.25;;;4.90;;
41921;SDS011;27609;51.002;5.354;2022-12-24T03:35:58;24.25;;;4.22;;
41921;SDS011;27609;51.002;5.354;2022-12-24T03:38:24;31.17;;;5.57;;
41921;SDS011;27609;51.002;5.354;2022-12-24T03:40:50;22.50;;;4.32;;
41921;SDS011;27609;51.002;5.354;2022-12-24T03:43:16;29.33;;;5.30;;
41921;SDS011;27609;51.002;5.354;2022-12-24T03:45:42;27.35;;;7.20;;
41921;SDS011;27609;51.002;5.354;2022-12-24T03:48:08;29.10;;;6.35;;
41921;SDS011;27609;51.002;5.354;2022-12-24T03:50:33;22.75;;;3.95;;
41921;SDS011;27609;51.002;5.354;2022-12-24T03:52:59;30.58;;;5.88;;
41921;SDS011;27609;51.002;5.354;2022-12-24T03:55:25;31.40;;;5.90;;
41921;SDS011;27609;51.002;5.354;2022-12-24T03:57:50;25.85;;;6.25;;
41921;SDS011;27609;51.002;5.354;2022-12-24T04:00:16;30.85;;;7.28;;
41921;SDS011;27609;51.002;5.354;2022-12-24T04:02:42;28.95;;;5.95;;
41921;SDS011;27609;51.002;5.354;2022-12-24T04:05:12;24.73;;;6.90;;
41921;SDS011;27609;51.002;5.354;2022-12-24T04:07:42;36.78;;;5.78;;
41921;SDS011;27609;51.002;5.354;2022-12-24T04:10:08;28.58;;;7.57;;
41921;SDS011;27609;51.002;5.354;2022-12-24T04:12:34;30.13;;;5.55;;
41921;SDS011;27609;51.002;5.354;2022-12-24T04:15:00;29.20;;;7.70;;
41921;SDS011;27609;51.002;5.354;2022-12-24T04:17:26;29.85;;;6.40;;
41921;SDS011;27609;51.002;5.354;2022-12-24T04:19:52;24.13;;;4.95;;
41921;SDS011;27609;51.002;5.354;2022-12-24T04:22:17;30.77;;;6.10;;
41921;SDS011;27609;51.002;5.354;2022-12-24T04:24:43;27.52;;;5.30;;
41921;SDS011;27609;51.002;5.354;2022-12-24T04:27:09;33.55;;;5.25;;
41921;SDS011;27609;51.002;5.354;2022-12-24T04:29:34;27.58;;;5.32;;
41921;SDS011;27609;51.002;5.354;2022-12-24T04:32:00;21.65;;;4.55;;
41921;SDS011;27609;51.002;5.354;2022-12-24T04:34:26;28.92;;;5.68;;
41921;SDS011;27609;51.002;5.354;2022-12-24T04:36:52;32.80;;;6.55;;
41921;SDS011;27609;51.002;5.354;2022-12-24T04:39:17;31.95;;;5.20;;
41921;SDS011;27609;51.002;5.354;2022-12-24T04:41:43;25.33;;;5.45;;
41921;SDS011;27609;51.002;5.354;2022-12-24T04:44:09;33.65;;;7.93;;
41921;SDS011;27609;51.002;5.354;2022-12-24T04:46:34;36.58;;;5.43;;
41921;SDS011;27609;51.002;5.354;2022-12-24T04:49:00;27.80;;;5.32;;
41921;SDS011;27609;51.002;5.354;2022-12-24T04:51:26;28.85;;;7.20;;
41921;SDS011;27609;51.002;5.354;2022-12-24T04:53:52;35.78;;;7.75;;
41921;SDS011;27609;51.002;5.354;2022-12-24T04:56:22;34.17;;;6.95;;
41921;SDS011;27609;51.002;5.354;2022-12-24T04:58:50;39.22;;;7.03;;
41921;SDS011;27609;51.002;5.354;2022-12-24T05:01:17;49.60;;;7.28;;
41921;SDS011;27609;51.002;5.354;2022-12-24T05:03:44;40.95;;;6.85;;
41921;SDS011;27609;51.002;5.354;2022-12-24T05:06:11;33.40;;;7.10;;
41921;SDS011;27609;51.002;5.354;2022-12-24T05:08:39;35.88;;;6.90;;
41921;SDS011;27609;51.002;5.354;2022-12-24T05:11:05;41.70;;;8.15;;
41921;SDS011;27609;51.002;5.354;2022-12-24T05:13:31;39.83;;;6.63;;
41921;SDS011;27609;51.002;5.354;2022-12-24T05:15:57;33.80;;;7.05;;
41921;SDS011;27609;51.002;5.354;2022-12-24T05:18:23;30.65;;;5.63;;
41921;SDS011;27609;51.002;5.354;2022-12-24T05:20:49;36.70;;;6.38;;
41921;SDS011;27609;51.002;5.354;2022-12-24T05:23:18;27.70;;;6.20;;
41921;SDS011;27609;51.002;5.354;2022-12-24T05:26:11;38.70;;;7.35;;
41921;SDS011;27609;51.002;5.354;2022-12-24T05:28:52;30.95;;;4.78;;
41921;SDS011;27609;51.002;5.354;2022-12-24T05:31:19;28.58;;;5.57;;
41921;SDS011;27609;51.002;5.354;2022-12-24T05:33:46;44.30;;;7.45;;
41921;SDS011;27609;51.002;5.354;2022-12-24T05:36:12;23.38;;;5.43;;
41921;SDS011;27609;51.002;5.354;2022-12-24T05:38:39;27.48;;;5.72;;
41921;SDS011;27609;51.002;5.354;2022-12-24T05:41:05;47.78;;;7.63;;
41921;SDS011;27609;51.002;5.354;2022-12-24T05:43:34;38.58;;;6.05;;
41921;SDS011;27609;51.002;5.354;2022-12-24T05:46:02;44.38;;;6.03;;
41921;SDS011;27609;51.002;5.354;2022-12-24T05:48:29;39.83;;;6.30;;
41921;SDS011;27609;51.002;5.354;2022-12-24T05:50:55;30.17;;;5.57;;
41921;SDS011;27609;51.002;5.354;2022-12-24T05:53:21;28.58;;;5.32;;
41921;SDS011;27609;51.002;5.354;2022-12-24T05:55:47;42.30;;;7.18;;
41921;SDS011;27609;51.002;5.354;2022-12-24T05:58:13;34.53;;;5.10;;
41921;SDS011;27609;51.002;5.354;2022-12-24T06:00:39;34.83;;;6.68;;
41921;SDS011;27609;51.002;5.354;2022-12-24T06:03:04;32.45;;;5.22;;
41921;SDS011;27609;51.002;5.354;2022-12-24T06:05:30;35.88;;;6.10;;
41921;SDS011;27609;51.002;5.354;2022-12-24T06:07:56;34.15;;;6.63;;
41921;SDS011;27609;51.002;5.354;2022-12-24T06:10:21;32.50;;;6.25;;
41921;SDS011;27609;51.002;5.354;2022-12-24T06:12:47;32.60;;;7.55;;
41921;SDS011;27609;51.002;5.354;2022-12-24T06:15:13;31.63;;;4.95;;
41921;SDS011;27609;51.002;5.354;2022-12-24T06:17:39;43.80;;;6.75;;
41921;SDS011;27609;51.002;5.354;2022-12-24T06:20:05;32.88;;;5.88;;
41921;SDS011;27609;51.002;5.354;2022-12-24T06:22:31;29.40;;;5.88;;
41921;SDS011;27609;51.002;5.354;2022-12-24T06:24:56;38.92;;;5.60;;
41921;SDS011;27609;51.002;5.354;2022-12-24T06:27:24;35.97;;;6.93;;
41921;SDS011;27609;51.002;5.354;2022-12-24T06:29:52;36.15;;;6.97;;
41921;SDS011;27609;51.002;5.354;2022-12-24T06:32:18;41.60;;;6.85;;
41921;SDS011;27609;51.002;5.354;2022-12-24T06:34:44;41.08;;;5.63;;
41921;SDS011;27609;51.002;5.354;2022-12-24T06:37:10;43.90;;;8.43;;
41921;SDS011;27609;51.002;5.354;2022-12-24T06:39:42;34.65;;;6.18;;
41921;SDS011;27609;51.002;5.354;2022-12-24T06:42:12;38.25;;;7.03;;
41921;SDS011;27609;51.002;5.354;2022-12-24T06:44:38;36.20;;;7.57;;
41921;SDS011;27609;51.002;5.354;2022-12-24T06:47:04;27.05;;;6.45;;
41921;SDS011;27609;51.002;5.354;2022-12-24T06:49:29;39.05;;;7.78;;
41921;SDS011;27609;51.002;5.354;2022-12-24T06:51:55;31.88;;;6.88;;
41921;SDS011;27609;51.002;5.354;2022-12-24T06:54:21;26.48;;;5.65;;
41921;SDS011;27609;51.002;5.354;2022-12-24T06:56:46;38.08;;;7.22;;
41921;SDS011;27609;51.002;5.354;2022-12-24T06:59:12;37.50;;;6.88;;
41921;SDS011;27609;51.002;5.354;2022-12-24T07:01:38;40.53;;;6.88;;
41921;SDS011;27609;51.002;5.354;2022-12-24T07:04:03;36.70;;;5.80;;
41921;SDS011;27609;51.002;5.354;2022-12-24T07:06:29;38.05;;;6.20;;
41921;SDS011;27609;51.002;5.354;2022-12-24T07:08:55;36.90;;;5.85;;
41921;SDS011;27609;51.002;5.354;2022-12-24T07:11:22;39.90;;;7.30;;
41921;SDS011;27609;51.002;5.354;2022-12-24T07:13:49;27.45;;;6.15;;
41921;SDS011;27609;51.002;5.354;2022-12-24T07:16:14;39.28;;;5.72;;
41921;SDS011;27609;51.002;5.354;2022-12-24T07:18:40;34.08;;;6.35;;
41921;SDS011;27609;51.002;5.354;2022-12-24T07:21:06;38.90;;;6.82;;
41921;SDS011;27609;51.002;5.354;2022-12-24T07:23:32;40.20;;;8.23;;
41921;SDS011;27609;51.002;5.354;2022-12-24T07:26:01;27.45;;;4.85;;
41921;SDS011;27609;51.002;5.354;2022-12-24T07:30:55;40.20;;;7.68;;
41921;SDS011;27609;51.002;5.354;2022-12-24T07:33:21;36.17;;;8.20;;
41921;SDS011;27609;51.002;5.354;2022-12-24T07:35:47;34.60;;;6.63;;
41921;SDS011;27609;51.002;5.354;2022-12-24T07:38:13;46.75;;;7.15;;
41921;SDS011;27609;51.002;5.354;2022-12-24T07:40:39;39.47;;;7.60;;
41921;SDS011;27609;51.002;5.354;2022-12-24T07:43:04;43.92;;;7.68;;
41921;SDS011;27609;51.002;5.354;2022-12-24T07:45:30;43.83;;;7.05;;
41921;SDS011;27609;51.002;5.354;2022-12-24T07:47:56;32.67;;;6.22;;
41921;SDS011;27609;51.002;5.354;2022-12-24T07:50:21;32.15;;;6.72;;
41921;SDS011;27609;51.002;5.354;2022-12-24T07:52:47;37.42;;;7.07;;
41921;SDS011;27609;51.002;5.354;2022-12-24T07:55:13;51.03;;;8.50;;
41921;SDS011;27609;51.002;5.354;2022-12-24T07:57:38;29.33;;;6.90;;
41921;SDS011;27609;51.002;5.354;2022-12-24T08:00:04;35.22;;;6.78;;
41921;SDS011;27609;51.002;5.354;2022-12-24T08:02:30;34.78;;;7.47;;
41921;SDS011;27609;51.002;5.354;2022-12-24T08:04:56;44.95;;;7.93;;
41921;SDS011;27609;51.002;5.354;2022-12-24T08:07:22;47.95;;;7.07;;
41921;SDS011;27609;51.002;5.354;2022-12-24T08:09:47;38.20;;;7.38;;
41921;SDS011;27609;51.002;5.354;2022-12-24T08:12:13;41.50;;;7.60;;
41921;SDS011;27609;51.002;5.354;2022-12-24T08:14:38;45.00;;;7.85;;
41921;SDS011;27609;51.002;5.354;2022-12-24T08:17:04;51.22;;;7.82;;
41921;SDS011;27609;51.002;5.354;2022-12-24T08:19:30;33.80;;;6.43;;
41921;SDS011;27609;51.002;5.354;2022-12-24T08:21:55;43.35;;;8.35;;
41921;SDS011;27609;51.002;5.354;2022-12-24T08:24:21;36.75;;;7.15;;
41921;SDS011;27609;51.002;5.354;2022-12-24T08:26:47;41.08;;;7.47;;
41921;SDS011;27609;51.002;5.354;2022-12-24T08:29:12;37.35;;;6.85;;
41921;SDS011;27609;51.002;5.354;2022-12-24T08:31:38;29.73;;;6.82;;
41921;SDS011;27609;51.002;5.354;2022-12-24T08:34:04;34.78;;;5.80;;
41921;SDS011;27609;51.002;5.354;2022-12-24T08:36:32;32.58;;;7.32;;
41921;SDS011;27609;51.002;5.354;2022-12-24T08:39:02;37.35;;;6.47;;
41921;SDS011;27609;51.002;5.354;2022-12-24T08:41:29;31.48;;;5.22;;
41921;SDS011;27609;51.002;5.354;2022-12-24T08:43:55;32.55;;;5.95;;
41921;SDS011;27609;51.002;5.354;2022-12-24T08:46:20;33.95;;;6.38;;
41921;SDS011;27609;51.002;5.354;2022-12-24T08:48:46;35.55;;;7.15;;
41921;SDS011;27609;51.002;5.354;2022-12-24T08:51:12;45.92;;;7.45;;
41921;SDS011;27609;51.002;5.354;2022-12-24T08:53:38;32.50;;;6.15;;
41921;SDS011;27609;51.002;5.354;2022-12-24T08:56:04;31.65;;;7.32;;
41921;SDS011;27609;51.002;5.354;2022-12-24T08:58:32;29.83;;;5.88;;
41921;SDS011;27609;51.002;5.354;2022-12-24T09:00:58;33.33;;;7.30;;
41921;SDS011;27609;51.002;5.354;2022-12-24T09:03:24;38.63;;;7.97;;
41921;SDS011;27609;51.002;5.354;2022-12-24T09:05:50;31.98;;;5.28;;
41921;SDS011;27609;51.002;5.354;2022-12-24T09:08:17;35.80;;;6.00;;
41921;SDS011;27609;51.002;5.354;2022-12-24T09:10:44;34.80;;;6.53;;
41921;SDS011;27609;51.002;5.354;2022-12-24T09:13:13;55.13;;;8.50;;
41921;SDS011;27609;51.002;5.354;2022-12-24T09:15:38;26.88;;;5.72;;
41921;SDS011;27609;51.002;5.354;2022-12-24T09:18:04;26.27;;;5.80;;
41921;SDS011;27609;51.002;5.354;2022-12-24T09:20:30;39.58;;;6.32;;
41921;SDS011;27609;51.002;5.354;2022-12-24T09:22:55;37.92;;;7.85;;
41921;SDS011;27609;51.002;5.354;2022-12-24T09:25:21;36.10;;;6.93;;
41921;SDS011;27609;51.002;5.354;2022-12-24T09:27:47;25.92;;;5.75;;
41921;SDS011;27609;51.002;5.354;2022-12-24T09:30:12;28.48;;;5.75;;
41921;SDS011;27609;51.002;5.354;2022-12-24T09:32:39;37.65;;;6.65;;
41921;SDS011;27609;51.002;5.354;2022-12-24T09:35:06;46.60;;;6.82;;
41921;SDS011;27609;51.002;5.354;2022-12-24T09:37:32;36.38;;;6.70;;
41921;SDS011;27609;51.002;5.354;2022-12-24T09:39:59;36.08;;;6.65;;
41921;SDS011;27609;51.002;5.354;2022-12-24T09:48:04;42.97;;;7.00;;
41921;SDS011;27609;51.002;5.354;2022-12-24T09:50:43;38.25;;;7.18;;
41921;SDS011;27609;51.002;5.354;2022-12-24T09:53:21;30.17;;;5.85;;
41921;SDS011;27609;51.002;5.354;2022-12-24T09:56:03;38.08;;;6.22;;
41921;SDS011;27609;51.002;5.354;2022-12-24T09:58:42;38.47;;;6.72;;
41921;SDS011;27609;51.002;5.354;2022-12-24T10:01:12;32.65;;;5.65;;
41921;SDS011;27609;51.002;5.354;2022-12-24T10:03:40;40.95;;;6.13;;
41921;SDS011;27609;51.002;5.354;2022-12-24T10:06:15;32.83;;;5.65;;
41921;SDS011;27609;51.002;5.354;2022-12-24T10:11:29;31.70;;;6.20;;
41921;SDS011;27609;51.002;5.354;2022-12-24T10:14:37;32.80;;;6.18;;
41921;SDS011;27609;51.002;5.354;2022-12-24T10:25:03;36.78;;;5.97;;
41921;SDS011;27609;51.002;5.354;2022-12-24T10:27:58;26.05;;;5.70;;
41921;SDS011;27609;51.002;5.354;2022-12-24T10:30:26;44.88;;;6.93;;
41921;SDS011;27609;51.002;5.354;2022-12-24T10:32:53;39.10;;;7.75;;
41921;SDS011;27609;51.002;5.354;2022-12-24T10:35:24;53.72;;;7.72;;
41921;SDS011;27609;51.002;5.354;2022-12-24T10:37:53;43.08;;;6.65;;
41921;SDS011;27609;51.002;5.354;2022-12-24T10:40:29;44.47;;;7.68;;
41921;SDS011;27609;51.002;5.354;2022-12-24T10:42:58;39.85;;;8.05;;
41921;SDS011;27609;51.002;5.354;2022-12-24T10:45:25;44.28;;;9.05;;
41921;SDS011;27609;51.002;5.354;2022-12-24T10:48:00;36.28;;;6.13;;
41921;SDS011;27609;51.002;5.354;2022-12-24T10:50:38;37.75;;;6.85;;
41921;SDS011;27609;51.002;5.354;2022-12-24T10:53:23;31.02;;;6.97;;
41921;SDS011;27609;51.002;5.354;2022-12-24T10:56:09;40.85;;;6.50;;
41921;SDS011;27609;51.002;5.354;2022-12-24T10:58:44;38.80;;;7.50;;
41921;SDS011;27609;51.002;5.354;2022-12-24T11:01:14;46.92;;;8.05;;
41921;SDS011;27609;51.002;5.354;2022-12-24T11:03:40;44.47;;;7.15;;
41921;SDS011;27609;51.002;5.354;2022-12-24T11:06:07;31.80;;;6.53;;
41921;SDS011;27609;51.002;5.354;2022-12-24T11:08:36;44.55;;;7.03;;
41921;SDS011;27609;51.002;5.354;2022-12-24T11:11:08;31.17;;;6.75;;
41921;SDS011;27609;51.002;5.354;2022-12-24T11:16:23;40.03;;;7.93;;
41921;SDS011;27609;51.002;5.354;2022-12-24T11:19:01;35.60;;;6.85;;
41921;SDS011;27609;51.002;5.354;2022-12-24T11:21:36;26.55;;;6.10;;
41921;SDS011;27609;51.002;5.354;2022-12-24T11:24:21;37.17;;;7.60;;
41921;SDS011;27609;51.002;5.354;2022-12-24T11:26:51;36.80;;;7.13;;
41921;SDS011;27609;51.002;5.354;2022-12-24T11:29:21;28.35;;;6.78;;
41921;SDS011;27609;51.002;5.354;2022-12-24T11:31:52;27.00;;;6.35;;
41921;SDS011;27609;51.002;5.354;2022-12-24T11:34:41;48.28;;;7.95;;
41921;SDS011;27609;51.002;5.354;2022-12-24T11:39:46;29.27;;;6.25;;
41921;SDS011;27609;51.002;5.354;2022-12-24T11:44:56;33.35;;;6.85;;
41921;SDS011;27609;51.002;5.354;2022-12-24T11:47:34;31.60;;;6.25;;
41921;SDS011;27609;51.002;5.354;2022-12-24T11:50:49;30.55;;;5.15;;
41921;SDS011;27609;51.002;5.354;2022-12-24T11:52:55;21.37;;;6.40;;
41921;SDS011;27609;51.002;5.354;2022-12-24T11:58:14;37.55;;;5.53;;
41921;SDS011;27609;51.002;5.354;2022-12-24T12:03:49;24.27;;;5.40;;
41921;SDS011;27609;51.002;5.354;2022-12-24T12:09:09;36.75;;;6.15;;
41921;SDS011;27609;51.002;5.354;2022-12-24T12:11:41;37.33;;;5.80;;
41921;SDS011;27609;51.002;5.354;2022-12-24T12:16:47;27.75;;;5.75;;
41921;SDS011;27609;51.002;5.354;2022-12-24T12:19:43;34.63;;;5.85;;
41921;SDS011;27609;51.002;5.354;2022-12-24T12:24:57;35.83;;;4.95;;
41921;SDS011;27609;51.002;5.354;2022-12-24T12:27:32;36.05;;;5.38;;
41921;SDS011;27609;51.002;5.354;2022-12-24T12:30:17;22.70;;;4.60;;
41921;SDS011;27609;51.002;5.354;2022-12-24T12:35:38;28.90;;;6.17;;
41921;SDS011;27609;51.002;5.354;2022-12-24T12:38:13;28.77;;;5.07;;
41921;SDS011;27609;51.002;5.354;2022-12-24T12:46:11;34.03;;;6.93;;
41921;SDS011;27609;51.002;5.354;2022-12-24T12:49:03;20.67;;;5.28;;
41921;SDS011;27609;51.002;5.354;2022-12-24T12:57:10;28.30;;;6.03;;
41921;SDS011;27609;51.002;5.354;2022-12-24T13:19:03;34.88;;;5.47;;
41921;SDS011;27609;51.002;5.354;2022-12-24T13:21:47;27.05;;;5.28;;
41921;SDS011;27609;51.002;5.354;2022-12-24T13:29:55;25.63;;;7.55;;
41921;SDS011;27609;51.002;5.354;2022-12-24T13:32:48;41.25;;;6.10;;
41921;SDS011;27609;51.002;5.354;2022-12-24T13:37:48;29.10;;;5.80;;
41921;SDS011;27609;51.002;5.354;2022-12-24T13:40:16;24.95;;;5.68;;
41921;SDS011;27609;51.002;5.354;2022-12-24T13:42:47;29.90;;;4.63;;
41921;SDS011;27609;51.002;5.354;2022-12-24T13:53:30;27.98;;;5.47;;
41921;SDS011;27609;51.002;5.354;2022-12-24T13:56:31;27.05;;;5.15;;
41921;SDS011;27609;51.002;5.354;2022-12-24T13:58:52;26.17;;;4.90;;
41921;SDS011;27609;51.002;5.354;2022-12-24T14:01:37;25.55;;;4.72;;
41921;SDS011;27609;51.002;5.354;2022-12-24T14:04:06;30.85;;;4.65;;
41921;SDS011;27609;51.002;5.354;2022-12-24T14:06:35;34.05;;;5.78;;
41921;SDS011;27609;51.002;5.354;2022-12-24T14:12:12;25.67;;;5.43;;
41921;SDS011;27609;51.002;5.354;2022-12-24T14:14:26;32.10;;;6.18;;
41921;SDS011;27609;51.002;5.354;2022-12-24T14:25:32;34.13;;;7.82;;
41921;SDS011;27609;51.002;5.354;2022-12-24T14:27:50;35.20;;;9.90;;
41921;SDS011;27609;51.002;5.354;2022-12-24T14:32:49;55.83;;;21.00;;
41921;SDS011;27609;51.002;5.354;2022-12-24T14:38:02;29.00;;;7.70;;
41921;SDS011;27609;51.002;5.354;2022-12-24T14:40:31;34.40;;;7.88;;
41921;SDS011;27609;51.002;5.354;2022-12-24T14:45:50;30.95;;;8.85;;
41921;SDS011;27609;51.002;5.354;2022-12-24T14:57:32;26.27;;;6.03;;
41921;SDS011;27609;51.002;5.354;2022-12-24T15:07:58;30.08;;;7.07;;
41921;SDS011;27609;51.002;5.354;2022-12-24T15:10:33;28.70;;;5.97;;
41921;SDS011;27609;51.002;5.354;2022-12-24T15:13:04;34.80;;;7.50;;
41921;SDS011;27609;51.002;5.354;2022-12-24T15:15:43;26.15;;;6.75;;
41921;SDS011;27609;51.002;5.354;2022-12-24T15:18:13;39.42;;;7.60;;
41921;SDS011;27609;51.002;5.354;2022-12-24T15:20:42;27.63;;;6.82;;
41921;SDS011;27609;51.002;5.354;2022-12-24T15:23:18;41.10;;;8.07;;
41921;SDS011;27609;51.002;5.354;2022-12-24T15:25:46;30.60;;;7.38;;
41921;SDS011;27609;51.002;5.354;2022-12-24T15:28:16;31.00;;;8.43;;
41921;SDS011;27609;51.002;5.354;2022-12-24T15:33:09;32.75;;;7.13;;
41921;SDS011;27609;51.002;5.354;2022-12-24T15:38:20;29.58;;;6.00;;
41921;SDS011;27609;51.002;5.354;2022-12-24T15:40:54;26.98;;;5.55;;
41921;SDS011;27609;51.002;5.354;2022-12-24T15:43:20;33.75;;;6.53;;
41921;SDS011;27609;51.002;5.354;2022-12-24T15:45:47;23.92;;;5.38;;
41921;SDS011;27609;51.002;5.354;2022-12-24T15:48:14;33.42;;;6.95;;
41921;SDS011;27609;51.002;5.354;2022-12-24T15:50:47;32.97;;;6.28;;
41921;SDS011;27609;51.002;5.354;2022-12-24T15:53:27;28.13;;;6.63;;
41921;SDS011;27609;51.002;5.354;2022-12-24T15:55:59;32.58;;;6.75;;
41921;SDS011;27609;51.002;5.354;2022-12-24T15:58:48;38.58;;;6.82;;
41921;SDS011;27609;51.002;5.354;2022-12-24T16:03:40;38.72;;;7.60;;
41921;SDS011;27609;51.002;5.354;2022-12-24T16:06:15;33.67;;;7.82;;
41921;SDS011;27609;51.002;5.354;2022-12-24T16:08:41;28.17;;;8.20;;
41921;SDS011;27609;51.002;5.354;2022-12-24T16:14:17;35.30;;;8.43;;
41921;SDS011;27609;51.002;5.354;2022-12-24T16:16:44;28.65;;;7.00;;
41921;SDS011;27609;51.002;5.354;2022-12-24T16:19:20;32.15;;;7.63;;
41921;SDS011;27609;51.002;5.354;2022-12-24T16:21:54;27.17;;;7.57;;
41921;SDS011;27609;51.002;5.354;2022-12-24T16:26:49;35.92;;;8.43;;
41921;SDS011;27609;51.002;5.354;2022-12-24T16:29:16;29.88;;;8.82;;
41921;SDS011;27609;51.002;5.354;2022-12-24T16:34:16;31.92;;;9.18;;
41921;SDS011;27609;51.002;5.354;2022-12-24T16:36:43;21.70;;;8.80;;
41921;SDS011;27609;51.002;5.354;2022-12-24T16:39:14;37.63;;;9.27;;
41921;SDS011;27609;51.002;5.354;2022-12-24T16:41:51;19.92;;;6.93;;
41921;SDS011;27609;51.002;5.354;2022-12-24T16:44:41;38.97;;;10.43;;
41921;SDS011;27609;51.002;5.354;2022-12-24T16:47:10;48.55;;;10.52;;
41921;SDS011;27609;51.002;5.354;2022-12-24T16:49:42;46.53;;;10.05;;
41921;SDS011;27609;51.002;5.354;2022-12-24T16:52:13;42.00;;;11.35;;
41921;SDS011;27609;51.002;5.354;2022-12-24T16:54:49;50.47;;;10.73;;
41921;SDS011;27609;51.002;5.354;2022-12-24T16:57:16;53.70;;;10.95;;
41921;SDS011;27609;51.002;5.354;2022-12-24T16:59:42;47.40;;;11.30;;
41921;SDS011;27609;51.002;5.354;2022-12-24T17:02:18;39.97;;;10.95;;
41921;SDS011;27609;51.002;5.354;2022-12-24T17:04:45;45.15;;;12.10;;
41921;SDS011;27609;51.002;5.354;2022-12-24T17:07:12;44.47;;;12.05;;
41921;SDS011;27609;51.002;5.354;2022-12-24T17:09:39;36.00;;;11.45;;
41921;SDS011;27609;51.002;5.354;2022-12-24T17:12:05;26.58;;;9.10;;
41921;SDS011;27609;51.002;5.354;2022-12-24T17:14:32;35.20;;;10.70;;
41921;SDS011;27609;51.002;5.354;2022-12-24T17:16:57;32.28;;;9.73;;
41921;SDS011;27609;51.002;5.354;2022-12-24T17:19:23;40.50;;;10.23;;
41921;SDS011;27609;51.002;5.354;2022-12-24T17:21:49;42.92;;;10.07;;
41921;SDS011;27609;51.002;5.354;2022-12-24T17:24:15;51.13;;;10.63;;
41921;SDS011;27609;51.002;5.354;2022-12-24T17:26:40;49.03;;;10.48;;
41921;SDS011;27609;51.002;5.354;2022-12-24T17:29:07;43.08;;;10.70;;
41921;SDS011;27609;51.002;5.354;2022-12-24T17:31:34;52.75;;;11.68;;
41921;SDS011;27609;51.002;5.354;2022-12-24T17:34:02;46.65;;;10.05;;